sensor_id;sensor_type;location;lat;lon;timestamp;pressure;altitude;pressure_sealevel;temperature;humidity
77023;BME280;65952;51.440;-2.054;2023-05-10T00:01:07;99874.28;;;11.32;80.52
77023;BME280;65952;51.440;-2.054;2023-05-10T00:03:33;99880.88;;;11.29;80.13
77023;BME280;65952;51.440;-2.054;2023-05-10T00:05:58;99894.03;;;11.24;80.70
77023;BME280;65952;51.440;-2.054;2023-05-10T00:08:24;99891.34;;;11.24;80.50
77023;BME280;65952;51.440;-2.054;2023-05-10T00:10:49;99886.16;;;11.22;80.73
77023;BME280;65952;51.440;-2.054;2023-05-10T00:13:15;99891.91;;;11.19;80.65
77023;BME280;65952;51.440;-2.054;2023-05-10T00:15:41;99885.59;;;11.12;81.33
77023;BME280;65952;51.440;-2.054;2023-05-10T00:18:07;99889.03;;;11.21;81.07
77023;BME280;65952;51.440;-2.054;2023-05-10T00:20:32;99887.34;;;11.20;80.58
77023;BME280;65952;51.440;-2.054;2023-05-10T00:26:26;99886.06;;;11.16;80.73
77023;BME280;65952;51.440;-2.054;2023-05-10T00:28:51;99888.63;;;11.09;80.66
77023;BME280;65952;51.440;-2.054;2023-05-10T00:31:17;99881.59;;;11.08;80.61
77023;BME280;65952;51.440;-2.054;2023-05-10T00:33:42;99890.19;;;11.03;81.04
77023;BME280;65952;51.440;-2.054;2023-05-10T00:39:29;99885.00;;;11.02;80.82
77023;BME280;65952;51.440;-2.054;2023-05-10T00:41:54;99882.00;;;10.97;81.18
77023;BME280;65952;51.440;-2.054;2023-05-10T00:44:20;99882.00;;;10.97;81.14
77023;BME280;65952;51.440;-2.054;2023-05-10T00:46:46;99881.72;;;10.92;80.97
77023;BME280;65952;51.440;-2.054;2023-05-10T00:49:13;99882.75;;;10.91;80.92
77023;BME280;65952;51.440;-2.054;2023-05-10T00:51:38;99883.59;;;10.91;80.91
77023;BME280;65952;51.440;-2.054;2023-05-10T00:54:04;99882.09;;;10.88;81.02
77023;BME280;65952;51.440;-2.054;2023-05-10T00:56:30;99883.00;;;10.81;81.52
77023;BME280;65952;51.440;-2.054;2023-05-10T00:58:56;99884.66;;;10.82;81.13
77023;BME280;65952;51.440;-2.054;2023-05-10T01:01:22;99890.75;;;10.76;81.25
77023;BME280;65952;51.440;-2.054;2023-05-10T01:06:57;99891.78;;;10.75;81.35
77023;BME280;65952;51.440;-2.054;2023-05-10T01:09:23;99882.41;;;10.70;81.79
77023;BME280;65952;51.440;-2.054;2023-05-10T01:11:51;99889.13;;;10.66;82.30
77023;BME280;65952;51.440;-2.054;2023-05-10T01:14:18;99888.59;;;10.71;82.33
77023;BME280;65952;51.440;-2.054;2023-05-10T01:16:45;99890.81;;;10.67;82.04
77023;BME280;65952;51.440;-2.054;2023-05-10T01:37:11;99894.66;;;10.73;82.12
77023;BME280;65952;51.440;-2.054;2023-05-10T01:39:48;99901.22;;;10.70;82.17
77023;BME280;65952;51.440;-2.054;2023-05-10T01:42:20;99894.78;;;10.71;82.16
77023;BME280;65952;51.440;-2.054;2023-05-10T01:51:00;99908.59;;;10.68;82.23
77023;BME280;65952;51.440;-2.054;2023-05-10T01:53:26;99908.59;;;10.68;82.14
77023;BME280;65952;51.440;-2.054;2023-05-10T01:55:55;99904.59;;;10.64;82.51
77023;BME280;65952;51.440;-2.054;2023-05-10T01:58:27;99906.72;;;10.69;81.96
77023;BME280;65952;51.440;-2.054;2023-05-10T02:00:55;99911.63;;;10.65;82.49
77023;BME280;65952;51.440;-2.054;2023-05-10T02:03:24;99912.66;;;10.64;82.62
77023;BME280;65952;51.440;-2.054;2023-05-10T02:05:53;99914.63;;;10.70;82.58
77023;BME280;65952;51.440;-2.054;2023-05-10T02:08:21;99915.44;;;10.71;82.57
77023;BME280;65952;51.440;-2.054;2023-05-10T02:10:48;99917.13;;;10.72;82.87
77023;BME280;65952;51.440;-2.054;2023-05-10T02:13:16;99920.44;;;10.74;82.63
77023;BME280;65952;51.440;-2.054;2023-05-10T02:15:42;99916.94;;;10.73;82.34
77023;BME280;65952;51.440;-2.054;2023-05-10T02:18:09;99912.88;;;10.78;82.06
77023;BME280;65952;51.440;-2.054;2023-05-10T02:20:37;99923.31;;;10.72;82.25
77023;BME280;65952;51.440;-2.054;2023-05-10T02:23:04;99915.94;;;10.75;81.87
77023;BME280;65952;51.440;-2.054;2023-05-10T02:25:31;99908.88;;;10.73;82.41
77023;BME280;65952;51.440;-2.054;2023-05-10T02:28:16;99919.63;;;10.73;82.11
77023;BME280;65952;51.440;-2.054;2023-05-10T02:30:42;99910.91;;;10.71;82.06
77023;BME280;65952;51.440;-2.054;2023-05-10T02:33:09;99919.66;;;10.65;82.19
77023;BME280;65952;51.440;-2.054;2023-05-10T02:35:35;99918.84;;;10.65;82.31
77023;BME280;65952;51.440;-2.054;2023-05-10T02:38:10;99919.50;;;10.67;82.12
77023;BME280;65952;51.440;-2.054;2023-05-10T02:40:37;99907.91;;;10.66;81.98
77023;BME280;65952;51.440;-2.054;2023-05-10T02:45:53;99912.81;;;10.63;82.04
77023;BME280;65952;51.440;-2.054;2023-05-10T02:48:18;99918.56;;;10.60;82.13
77023;BME280;65952;51.440;-2.054;2023-05-10T02:50:45;99918.06;;;10.56;82.25
77023;BME280;65952;51.440;-2.054;2023-05-10T02:53:15;99923.44;;;10.56;82.39
77023;BME280;65952;51.440;-2.054;2023-05-10T02:55:45;99925.59;;;10.61;82.40
77023;BME280;65952;51.440;-2.054;2023-05-10T02:58:14;99928.47;;;10.59;82.21
77023;BME280;65952;51.440;-2.054;2023-05-10T03:00:39;99921.75;;;10.55;82.49
77023;BME280;65952;51.440;-2.054;2023-05-10T03:03:05;99930.47;;;10.57;82.12
77023;BME280;65952;51.440;-2.054;2023-05-10T03:05:31;99929.81;;;10.55;82.30
77023;BME280;65952;51.440;-2.054;2023-05-10T03:07:57;99931.84;;;10.53;82.41
77023;BME280;65952;51.440;-2.054;2023-05-10T03:16:44;99936.03;;;10.55;82.64
77023;BME280;65952;51.440;-2.054;2023-05-10T03:21:44;99936.34;;;10.61;82.32
77023;BME280;65952;51.440;-2.054;2023-05-10T03:24:13;99947.72;;;10.63;82.73
77023;BME280;65952;51.440;-2.054;2023-05-10T03:30:02;99951.84;;;10.73;82.40
77023;BME280;65952;51.440;-2.054;2023-05-10T03:32:29;99937.22;;;10.76;82.57
77023;BME280;65952;51.440;-2.054;2023-05-10T03:34:56;99939.56;;;10.79;82.42
77023;BME280;65952;51.440;-2.054;2023-05-10T03:37:22;99936.69;;;10.81;82.53
77023;BME280;65952;51.440;-2.054;2023-05-10T03:39:47;99941.69;;;10.84;82.46
77023;BME280;65952;51.440;-2.054;2023-05-10T03:42:13;99941.66;;;10.92;82.14
77023;BME280;65952;51.440;-2.054;2023-05-10T03:44:39;99943.47;;;10.92;82.48
77023;BME280;65952;51.440;-2.054;2023-05-10T03:47:05;99941.47;;;10.94;82.11
77023;BME280;65952;51.440;-2.054;2023-05-10T03:49:30;99952.69;;;10.97;82.27
77023;BME280;65952;51.440;-2.054;2023-05-10T03:51:56;99952.50;;;10.99;81.98
77023;BME280;65952;51.440;-2.054;2023-05-10T03:54:21;99946.13;;;11.00;81.97
77023;BME280;65952;51.440;-2.054;2023-05-10T03:56:47;99949.09;;;11.05;81.56
77023;BME280;65952;51.440;-2.054;2023-05-10T03:59:13;99953.34;;;10.99;81.73
77023;BME280;65952;51.440;-2.054;2023-05-10T04:01:39;99948.28;;;11.04;81.49
77023;BME280;65952;51.440;-2.054;2023-05-10T04:04:04;99955.63;;;11.11;81.15
77023;BME280;65952;51.440;-2.054;2023-05-10T04:06:32;99949.78;;;11.07;80.75
77023;BME280;65952;51.440;-2.054;2023-05-10T04:08:58;99959.50;;;11.08;80.79
77023;BME280;65952;51.440;-2.054;2023-05-10T04:11:25;99948.09;;;11.06;80.85
77023;BME280;65952;51.440;-2.054;2023-05-10T04:13:51;99946.22;;;11.06;80.74
77023;BME280;65952;51.440;-2.054;2023-05-10T04:16:16;99949.91;;;11.05;80.77
77023;BME280;65952;51.440;-2.054;2023-05-10T04:18:42;99953.94;;;11.10;80.81
77023;BME280;65952;51.440;-2.054;2023-05-10T04:24:36;99962.19;;;11.08;80.86
77023;BME280;65952;51.440;-2.054;2023-05-10T04:27:01;99959.84;;;11.05;80.99
77023;BME280;65952;51.440;-2.054;2023-05-10T04:29:27;99958.66;;;11.08;80.80
77023;BME280;65952;51.440;-2.054;2023-05-10T04:31:52;99962.81;;;11.10;80.76
77023;BME280;65952;51.440;-2.054;2023-05-10T04:34:20;99968.00;;;11.12;80.57
77023;BME280;65952;51.440;-2.054;2023-05-10T04:40:08;99966.47;;;11.17;80.99
77023;BME280;65952;51.440;-2.054;2023-05-10T04:42:33;99967.97;;;11.20;80.87
77023;BME280;65952;51.440;-2.054;2023-05-10T04:44:59;99971.13;;;11.24;80.88
77023;BME280;65952;51.440;-2.054;2023-05-10T04:47:24;99968.31;;;11.17;81.00
77023;BME280;65952;51.440;-2.054;2023-05-10T04:49:50;99968.91;;;11.27;80.63
77023;BME280;65952;51.440;-2.054;2023-05-10T04:52:15;99964.56;;;11.26;80.62
77023;BME280;65952;51.440;-2.054;2023-05-10T04:54:42;99965.31;;;11.35;80.55
77023;BME280;65952;51.440;-2.054;2023-05-10T04:57:07;99959.09;;;11.34;80.34
77023;BME280;65952;51.440;-2.054;2023-05-10T04:59:36;99965.31;;;11.35;80.43
77023;BME280;65952;51.440;-2.054;2023-05-10T05:02:02;99967.81;;;11.36;80.12
77023;BME280;65952;51.440;-2.054;2023-05-10T05:04:29;99972.38;;;11.36;80.37
77023;BME280;65952;51.440;-2.054;2023-05-10T05:06:55;99975.34;;;11.41;80.07
77023;BME280;65952;51.440;-2.054;2023-05-10T05:09:20;99976.16;;;11.42;80.04
77023;BME280;65952;51.440;-2.054;2023-05-10T05:11:46;99973.66;;;11.40;79.83
77023;BME280;65952;51.440;-2.054;2023-05-10T05:14:11;99988.22;;;11.46;79.42
77023;BME280;65952;51.440;-2.054;2023-05-10T05:16:37;99986.84;;;11.50;79.38
77023;BME280;65952;51.440;-2.054;2023-05-10T05:19:02;99986.00;;;11.49;79.42
77023;BME280;65952;51.440;-2.054;2023-05-10T05:21:28;99986.66;;;11.51;79.21
77023;BME280;65952;51.440;-2.054;2023-05-10T05:23:53;99989.84;;;11.55;79.22
77023;BME280;65952;51.440;-2.054;2023-05-10T05:26:19;99997.03;;;11.54;79.00
77023;BME280;65952;51.440;-2.054;2023-05-10T05:28:44;100005.88;;;11.63;78.88
77023;BME280;65952;51.440;-2.054;2023-05-10T05:31:09;100002.63;;;11.68;78.91
77023;BME280;65952;51.440;-2.054;2023-05-10T05:33:35;100001.72;;;11.76;78.75
77023;BME280;65952;51.440;-2.054;2023-05-10T05:36:02;99998.69;;;11.79;78.40
77023;BME280;65952;51.440;-2.054;2023-05-10T05:38:28;100002.47;;;11.84;78.25
77023;BME280;65952;51.440;-2.054;2023-05-10T05:40:54;100010.81;;;11.90;77.89
77023;BME280;65952;51.440;-2.054;2023-05-10T05:43:19;100018.34;;;11.94;77.84
77023;BME280;65952;51.440;-2.054;2023-05-10T05:45:44;100011.28;;;11.93;77.42
77023;BME280;65952;51.440;-2.054;2023-05-10T05:48:10;100016.81;;;12.00;77.73
77023;BME280;65952;51.440;-2.054;2023-05-10T05:50:35;100021.72;;;12.26;77.54
77023;BME280;65952;51.440;-2.054;2023-05-10T05:53:01;100017.31;;;12.70;76.48
77023;BME280;65952;51.440;-2.054;2023-05-10T05:55:27;100016.41;;;12.99;75.11
77023;BME280;65952;51.440;-2.054;2023-05-10T05:57:52;100019.91;;;13.22;73.50
77023;BME280;65952;51.440;-2.054;2023-05-10T06:00:18;100023.84;;;13.41;72.35
77023;BME280;65952;51.440;-2.054;2023-05-10T06:02:44;100030.59;;;13.52;71.80
77023;BME280;65952;51.440;-2.054;2023-05-10T06:05:09;100034.78;;;13.54;71.51
77023;BME280;65952;51.440;-2.054;2023-05-10T06:07:35;100037.00;;;13.72;71.48
77023;BME280;65952;51.440;-2.054;2023-05-10T06:10:01;100032.63;;;14.00;70.54
77023;BME280;65952;51.440;-2.054;2023-05-10T06:12:26;100031.91;;;14.12;69.67
77023;BME280;65952;51.440;-2.054;2023-05-10T06:14:51;100032.38;;;14.29;69.11
77023;BME280;65952;51.440;-2.054;2023-05-10T06:17:17;100029.13;;;14.41;68.24
77023;BME280;65952;51.440;-2.054;2023-05-10T06:19:43;100034.09;;;14.37;68.87
77023;BME280;65952;51.440;-2.054;2023-05-10T06:22:08;100039.63;;;14.64;67.56
77023;BME280;65952;51.440;-2.054;2023-05-10T06:24:34;100028.38;;;16.09;66.22
77023;BME280;65952;51.440;-2.054;2023-05-10T06:26:59;100031.72;;;17.73;59.02
77023;BME280;65952;51.440;-2.054;2023-05-10T06:29:25;100028.31;;;19.26;54.18
77023;BME280;65952;51.440;-2.054;2023-05-10T06:31:51;100026.34;;;20.52;49.67
77023;BME280;65952;51.440;-2.054;2023-05-10T06:34:16;100033.47;;;21.40;47.61
77023;BME280;65952;51.440;-2.054;2023-05-10T06:36:42;100043.34;;;21.41;45.98
77023;BME280;65952;51.440;-2.054;2023-05-10T06:39:07;100046.13;;;20.48;47.63
77023;BME280;65952;51.440;-2.054;2023-05-10T06:41:32;100048.66;;;19.24;50.91
77023;BME280;65952;51.440;-2.054;2023-05-10T06:43:58;100053.59;;;17.78;54.58
77023;BME280;65952;51.440;-2.054;2023-05-10T06:46:23;100062.34;;;16.84;57.57
77023;BME280;65952;51.440;-2.054;2023-05-10T06:48:49;100060.19;;;16.41;59.45
77023;BME280;65952;51.440;-2.054;2023-05-10T06:51:14;100064.00;;;16.00;60.46
77023;BME280;65952;51.440;-2.054;2023-05-10T06:53:40;100054.84;;;16.80;59.15
77023;BME280;65952;51.440;-2.054;2023-05-10T06:56:05;100051.16;;;18.58;53.84
77023;BME280;65952;51.440;-2.054;2023-05-10T06:58:34;100048.69;;;20.02;50.62
77023;BME280;65952;51.440;-2.054;2023-05-10T07:01:03;100044.69;;;21.55;46.86
77023;BME280;65952;51.440;-2.054;2023-05-10T07:03:30;100041.53;;;22.81;43.86
77023;BME280;65952;51.440;-2.054;2023-05-10T07:06:02;100035.28;;;23.68;40.91
77023;BME280;65952;51.440;-2.054;2023-05-10T07:08:32;100039.38;;;24.51;39.79
77023;BME280;65952;51.440;-2.054;2023-05-10T07:11:16;100031.91;;;25.10;37.99
77023;BME280;65952;51.440;-2.054;2023-05-10T07:13:41;100032.94;;;24.83;38.68
77023;BME280;65952;51.440;-2.054;2023-05-10T07:16:09;100033.47;;;24.80;39.26
77023;BME280;65952;51.440;-2.054;2023-05-10T07:18:35;100044.59;;;24.05;40.45
77023;BME280;65952;51.440;-2.054;2023-05-10T07:21:01;100045.03;;;22.99;42.10
77023;BME280;65952;51.440;-2.054;2023-05-10T07:23:26;100043.72;;;22.18;44.29
77023;BME280;65952;51.440;-2.054;2023-05-10T07:25:52;100047.63;;;21.54;46.27
77023;BME280;65952;51.440;-2.054;2023-05-10T07:28:18;100042.06;;;22.56;44.65
77023;BME280;65952;51.440;-2.054;2023-05-10T07:30:44;100041.97;;;23.17;42.94
77023;BME280;65952;51.440;-2.054;2023-05-10T07:33:13;100058.97;;;22.97;43.50
77023;BME280;65952;51.440;-2.054;2023-05-10T07:35:39;100047.22;;;23.24;41.46
77023;BME280;65952;51.440;-2.054;2023-05-10T07:38:05;100055.16;;;22.98;42.54
77023;BME280;65952;51.440;-2.054;2023-05-10T07:43:52;100055.16;;;21.01;47.39
77023;BME280;65952;51.440;-2.054;2023-05-10T07:46:18;100050.16;;;20.57;48.69
77023;BME280;65952;51.440;-2.054;2023-05-10T07:48:45;100053.56;;;20.11;50.35
77023;BME280;65952;51.440;-2.054;2023-05-10T07:51:10;100047.19;;;19.52;51.21
77023;BME280;65952;51.440;-2.054;2023-05-10T07:53:36;100047.78;;;19.11;52.35
77023;BME280;65952;51.440;-2.054;2023-05-10T07:56:24;100050.97;;;19.51;51.79
77023;BME280;65952;51.440;-2.054;2023-05-10T07:58:55;100044.09;;;21.07;47.68
77023;BME280;65952;51.440;-2.054;2023-05-10T08:01:22;100047.59;;;21.37;46.07
77023;BME280;65952;51.440;-2.054;2023-05-10T08:03:48;100048.72;;;21.07;47.32
77023;BME280;65952;51.440;-2.054;2023-05-10T08:06:17;100054.06;;;20.61;48.18
77023;BME280;65952;51.440;-2.054;2023-05-10T08:08:43;100056.75;;;20.20;50.07
77023;BME280;65952;51.440;-2.054;2023-05-10T08:11:10;100063.69;;;19.80;51.51
77023;BME280;65952;51.440;-2.054;2023-05-10T08:13:36;100065.22;;;19.76;50.99
77023;BME280;65952;51.440;-2.054;2023-05-10T08:16:01;100063.50;;;19.40;52.15
77023;BME280;65952;51.440;-2.054;2023-05-10T08:18:27;100065.97;;;18.80;53.00
77023;BME280;65952;51.440;-2.054;2023-05-10T08:20:52;100076.69;;;18.38;54.73
77023;BME280;65952;51.440;-2.054;2023-05-10T08:23:18;100075.94;;;17.80;55.81
77023;BME280;65952;51.440;-2.054;2023-05-10T08:25:43;100071.41;;;17.10;58.03
77023;BME280;65952;51.440;-2.054;2023-05-10T08:28:08;100074.44;;;16.82;60.28
77023;BME280;65952;51.440;-2.054;2023-05-10T08:30:34;100072.00;;;16.60;60.39
77023;BME280;65952;51.440;-2.054;2023-05-10T08:32:59;100075.78;;;16.59;61.31
77023;BME280;65952;51.440;-2.054;2023-05-10T08:35:25;100073.47;;;16.63;61.45
77023;BME280;65952;51.440;-2.054;2023-05-10T08:37:51;100072.66;;;16.55;60.73
77023;BME280;65952;51.440;-2.054;2023-05-10T08:40:19;100074.53;;;16.62;61.15
77023;BME280;65952;51.440;-2.054;2023-05-10T08:42:50;100079.78;;;17.09;60.44
77023;BME280;65952;51.440;-2.054;2023-05-10T08:45:17;100075.41;;;17.71;57.97
77023;BME280;65952;51.440;-2.054;2023-05-10T08:47:44;100075.13;;;18.49;57.02
77023;BME280;65952;51.440;-2.054;2023-05-10T08:50:11;100070.22;;;19.07;54.21
77023;BME280;65952;51.440;-2.054;2023-05-10T08:52:38;100075.09;;;19.47;53.34
77023;BME280;65952;51.440;-2.054;2023-05-10T08:55:05;100070.38;;;19.42;52.09
77023;BME280;65952;51.440;-2.054;2023-05-10T08:57:31;100081.78;;;19.21;53.71
77023;BME280;65952;51.440;-2.054;2023-05-10T08:59:57;100076.38;;;18.83;53.94
77023;BME280;65952;51.440;-2.054;2023-05-10T09:02:23;100082.38;;;18.37;56.07
77023;BME280;65952;51.440;-2.054;2023-05-10T09:04:49;100079.56;;;17.99;57.02
77023;BME280;65952;51.440;-2.054;2023-05-10T09:07:14;100078.94;;;17.97;57.26
77023;BME280;65952;51.440;-2.054;2023-05-10T09:09:41;100072.69;;;17.97;57.11
77023;BME280;65952;51.440;-2.054;2023-05-10T09:12:07;100082.69;;;18.03;57.06
77023;BME280;65952;51.440;-2.054;2023-05-10T09:14:36;100073.88;;;18.08;56.56
77023;BME280;65952;51.440;-2.054;2023-05-10T09:17:02;100085.75;;;18.32;56.91
77023;BME280;65952;51.440;-2.054;2023-05-10T09:19:28;100074.75;;;18.45;56.12
77023;BME280;65952;51.440;-2.054;2023-05-10T09:21:54;100075.78;;;18.44;56.26
77023;BME280;65952;51.440;-2.054;2023-05-10T09:24:25;100084.47;;;18.34;58.00
77023;BME280;65952;51.440;-2.054;2023-05-10T09:26:50;100085.16;;;18.05;58.74
77023;BME280;65952;51.440;-2.054;2023-05-10T09:29:16;100079.63;;;17.61;60.13
77023;BME280;65952;51.440;-2.054;2023-05-10T09:31:49;100080.63;;;17.41;61.04
77023;BME280;65952;51.440;-2.054;2023-05-10T09:34:30;100079.75;;;17.47;60.89
77023;BME280;65952;51.440;-2.054;2023-05-10T09:37:00;100086.00;;;17.09;60.95
77023;BME280;65952;51.440;-2.054;2023-05-10T09:39:34;100077.28;;;17.00;61.09
77023;BME280;65952;51.440;-2.054;2023-05-10T09:42:01;100087.56;;;16.92;60.99
77023;BME280;65952;51.440;-2.054;2023-05-10T09:44:29;100083.38;;;17.34;60.77
77023;BME280;65952;51.440;-2.054;2023-05-10T09:46:54;100086.22;;;18.66;59.14
77023;BME280;65952;51.440;-2.054;2023-05-10T09:49:21;100085.50;;;18.89;56.76
77023;BME280;65952;51.440;-2.054;2023-05-10T09:51:47;100083.47;;;18.84;57.25
77023;BME280;65952;51.440;-2.054;2023-05-10T09:54:16;100081.22;;;19.30;55.97
77023;BME280;65952;51.440;-2.054;2023-05-10T09:56:42;100077.38;;;19.62;55.71
77023;BME280;65952;51.440;-2.054;2023-05-10T09:59:11;100082.31;;;20.07;53.53
77023;BME280;65952;51.440;-2.054;2023-05-10T10:01:38;100077.34;;;20.40;54.06
77023;BME280;65952;51.440;-2.054;2023-05-10T10:04:04;100080.25;;;21.43;52.12
77023;BME280;65952;51.440;-2.054;2023-05-10T10:06:38;100075.34;;;22.92;48.59
77023;BME280;65952;51.440;-2.054;2023-05-10T10:09:05;100078.53;;;22.84;46.00
77023;BME280;65952;51.440;-2.054;2023-05-10T10:11:31;100074.97;;;22.39;46.99
77023;BME280;65952;51.440;-2.054;2023-05-10T10:13:58;100077.94;;;22.37;47.83
77023;BME280;65952;51.440;-2.054;2023-05-10T10:16:24;100079.03;;;22.02;47.24
77023;BME280;65952;51.440;-2.054;2023-05-10T10:18:49;100078.56;;;21.42;48.09
77023;BME280;65952;51.440;-2.054;2023-05-10T10:28:24;100092.06;;;19.19;52.19
77023;BME280;65952;51.440;-2.054;2023-05-10T10:30:53;100091.78;;;18.90;53.40
77023;BME280;65952;51.440;-2.054;2023-05-10T10:33:56;100086.91;;;18.43;54.61
77023;BME280;65952;51.440;-2.054;2023-05-10T10:36:22;100094.28;;;18.35;56.23
77023;BME280;65952;51.440;-2.054;2023-05-10T10:49:52;100090.41;;;18.25;57.53
77023;BME280;65952;51.440;-2.054;2023-05-10T10:52:27;100084.03;;;17.94;57.06
77023;BME280;65952;51.440;-2.054;2023-05-10T10:57:49;100077.81;;;19.47;53.40
77023;BME280;65952;51.440;-2.054;2023-05-10T11:00:25;100071.69;;;19.94;52.09
77023;BME280;65952;51.440;-2.054;2023-05-10T11:03:12;100071.06;;;19.92;51.73
77023;BME280;65952;51.440;-2.054;2023-05-10T11:05:50;100070.75;;;19.46;52.03
77023;BME280;65952;51.440;-2.054;2023-05-10T11:15:59;100073.75;;;18.40;55.52
77023;BME280;65952;51.440;-2.054;2023-05-10T11:18:36;100075.31;;;18.10;55.25
77023;BME280;65952;51.440;-2.054;2023-05-10T11:21:02;100081.41;;;18.06;55.63
77023;BME280;65952;51.440;-2.054;2023-05-10T11:26:12;100075.78;;;18.26;54.64
77023;BME280;65952;51.440;-2.054;2023-05-10T11:28:45;100067.31;;;18.52;54.07
77023;BME280;65952;51.440;-2.054;2023-05-10T11:31:13;100070.56;;;18.80;53.40
77023;BME280;65952;51.440;-2.054;2023-05-10T11:33:43;100071.31;;;19.06;52.35
77023;BME280;65952;51.440;-2.054;2023-05-10T11:36:20;100061.13;;;19.97;50.27
77023;BME280;65952;51.440;-2.054;2023-05-10T11:38:47;100061.13;;;20.33;49.00
77023;BME280;65952;51.440;-2.054;2023-05-10T11:41:14;100061.72;;;20.00;48.02
77023;BME280;65952;51.440;-2.054;2023-05-10T11:43:40;100049.94;;;19.75;48.50
77023;BME280;65952;51.440;-2.054;2023-05-10T11:46:07;100049.53;;;19.90;48.86
77023;BME280;65952;51.440;-2.054;2023-05-10T11:48:33;100056.63;;;20.03;49.09
77023;BME280;65952;51.440;-2.054;2023-05-10T11:51:00;100055.56;;;19.38;49.04
77023;BME280;65952;51.440;-2.054;2023-05-10T11:53:26;100056.75;;;19.42;50.38
77023;BME280;65952;51.440;-2.054;2023-05-10T11:55:52;100055.41;;;19.21;50.39
77023;BME280;65952;51.440;-2.054;2023-05-10T11:58:18;100059.13;;;19.51;49.91
77023;BME280;65952;51.440;-2.054;2023-05-10T12:00:44;100051.94;;;19.56;50.32
77023;BME280;65952;51.440;-2.054;2023-05-10T12:03:10;100060.66;;;19.89;48.61
77023;BME280;65952;51.440;-2.054;2023-05-10T12:05:36;100051.13;;;20.39;48.95
77023;BME280;65952;51.440;-2.054;2023-05-10T12:08:15;100046.28;;;20.41;48.02
77023;BME280;65952;51.440;-2.054;2023-05-10T12:10:41;100046.00;;;21.07;46.64
77023;BME280;65952;51.440;-2.054;2023-05-10T12:13:11;100037.00;;;21.86;46.23
77023;BME280;65952;51.440;-2.054;2023-05-10T12:15:38;100042.44;;;22.43;43.69
77023;BME280;65952;51.440;-2.054;2023-05-10T12:18:03;100044.63;;;22.40;43.09
77023;BME280;65952;51.440;-2.054;2023-05-10T12:20:30;100044.53;;;22.18;43.90
77023;BME280;65952;51.440;-2.054;2023-05-10T12:22:57;100041.28;;;21.99;45.24
77023;BME280;65952;51.440;-2.054;2023-05-10T12:25:32;100042.06;;;21.32;45.14
77023;BME280;65952;51.440;-2.054;2023-05-10T12:27:59;100048.63;;;20.73;45.61
77023;BME280;65952;51.440;-2.054;2023-05-10T12:30:30;100056.84;;;20.37;45.40
77023;BME280;65952;51.440;-2.054;2023-05-10T12:33:01;100049.50;;;20.26;45.94
77023;BME280;65952;51.440;-2.054;2023-05-10T12:35:30;100053.84;;;20.39;47.45
77023;BME280;65952;51.440;-2.054;2023-05-10T12:37:55;100056.94;;;20.54;46.21
77023;BME280;65952;51.440;-2.054;2023-05-10T12:40:21;100049.81;;;20.94;45.22
77023;BME280;65952;51.440;-2.054;2023-05-10T12:42:46;100046.72;;;21.02;44.40
77023;BME280;65952;51.440;-2.054;2023-05-10T12:45:11;100062.59;;;21.05;45.16
77023;BME280;65952;51.440;-2.054;2023-05-10T12:47:37;100047.09;;;20.94;44.31
77023;BME280;65952;51.440;-2.054;2023-05-10T12:50:04;100046.41;;;21.45;45.12
77023;BME280;65952;51.440;-2.054;2023-05-10T12:52:30;100046.75;;;21.65;44.10
77023;BME280;65952;51.440;-2.054;2023-05-10T12:54:57;100045.81;;;21.94;44.14
77023;BME280;65952;51.440;-2.054;2023-05-10T12:57:23;100056.94;;;21.87;43.75
77023;BME280;65952;51.440;-2.054;2023-05-10T12:59:48;100049.44;;;21.31;43.97
77023;BME280;65952;51.440;-2.054;2023-05-10T13:02:14;100049.72;;;20.89;45.34
77023;BME280;65952;51.440;-2.054;2023-05-10T13:04:40;100051.88;;;20.22;47.07
77023;BME280;65952;51.440;-2.054;2023-05-10T13:07:07;100056.16;;;20.06;47.77
77023;BME280;65952;51.440;-2.054;2023-05-10T13:09:32;100058.16;;;20.23;47.09
77023;BME280;65952;51.440;-2.054;2023-05-10T13:11:57;100056.63;;;20.27;47.11
77023;BME280;65952;51.440;-2.054;2023-05-10T13:14:23;100060.41;;;20.14;47.40
77023;BME280;65952;51.440;-2.054;2023-05-10T13:16:49;100061.13;;;20.09;48.03
77023;BME280;65952;51.440;-2.054;2023-05-10T13:19:15;100063.06;;;19.55;46.89
77023;BME280;65952;51.440;-2.054;2023-05-10T13:21:40;100062.03;;;19.25;47.89
77023;BME280;65952;51.440;-2.054;2023-05-10T13:24:06;100074.69;;;19.20;48.16
77023;BME280;65952;51.440;-2.054;2023-05-10T13:26:32;100074.25;;;19.04;47.75
77023;BME280;65952;51.440;-2.054;2023-05-10T13:28:57;100079.34;;;18.82;48.90
77023;BME280;65952;51.440;-2.054;2023-05-10T13:31:23;100072.91;;;18.95;50.28
77023;BME280;65952;51.440;-2.054;2023-05-10T13:33:48;100068.88;;;19.16;49.96
77023;BME280;65952;51.440;-2.054;2023-05-10T13:36:13;100062.44;;;19.10;49.21
77023;BME280;65952;51.440;-2.054;2023-05-10T13:38:39;100066.78;;;19.30;49.56
77023;BME280;65952;51.440;-2.054;2023-05-10T13:41:04;100066.44;;;19.38;49.28
77023;BME280;65952;51.440;-2.054;2023-05-10T13:43:30;100066.56;;;18.82;48.09
77023;BME280;65952;51.440;-2.054;2023-05-10T13:45:55;100065.81;;;18.94;49.35
77023;BME280;65952;51.440;-2.054;2023-05-10T13:48:21;100067.75;;;19.05;48.09
77023;BME280;65952;51.440;-2.054;2023-05-10T13:50:46;100065.56;;;18.95;49.02
77023;BME280;65952;51.440;-2.054;2023-05-10T13:53:12;100065.63;;;18.89;48.32
77023;BME280;65952;51.440;-2.054;2023-05-10T13:55:37;100069.50;;;18.62;47.17
77023;BME280;65952;51.440;-2.054;2023-05-10T13:58:03;100063.78;;;18.52;48.79
77023;BME280;65952;51.440;-2.054;2023-05-10T14:00:28;100076.25;;;18.60;47.37
77023;BME280;65952;51.440;-2.054;2023-05-10T14:02:54;100065.66;;;18.70;47.40
77023;BME280;65952;51.440;-2.054;2023-05-10T14:05:19;100063.25;;;18.80;47.25
77023;BME280;65952;51.440;-2.054;2023-05-10T14:07:45;100068.53;;;18.94;47.25
77023;BME280;65952;51.440;-2.054;2023-05-10T14:10:10;100059.94;;;18.97;46.84
77023;BME280;65952;51.440;-2.054;2023-05-10T14:12:36;100061.88;;;19.08;47.43